Aeroporto :
LOGIN :

Iscrizione | Disclaimer

   EN    FR    IT 

 










Sommario :    VFR   VFR Marginale   IFR   IFR Intensivo   IFR Molto Intensivo
Visibilità : 
Base nubi : 
>= 8 km
>= 3000ft
5 / 8 km
1000 / 3000 ft
1500m / 5 km
500 / 1000 ft
800 / 1500m
200 / 500 ft
< 800m
< 200 ft
Simboli :   Temporali  Nebbia  Neve Forte  Precipitazioni Forti  Vento > 20 kt
SIGMETs :   Varie  Temporali  Ghiacco  Turbolenza  Onda orograficha  Ceneri Vulcaniche






- Altitudine del aeroporto : 277 ft
- Codice IATA : JER


EGJJ - Jersey

ULTIMO METAR :
  • 131420Z 21017KT 9999 FEW026 09/05 Q0999

METARs OBSOLETI :
  • 131350Z 22013KT 9999 VCSH FEW025 09/05 Q1000
  • 131320Z 22015KT 9999 VCSH FEW026 SCT032 09/05 Q1001
  • 131250Z 23015KT 9999 VCSH FEW021 SCT024 10/05 Q1001
  • 131220Z 23012KT 9999 SCT029 10/05 Q1002
  • 131150Z 24015KT 9999 FEW030 10/05 Q1002

TAF TAF EGJJ
Valido dal 13 a 15 ore il 14 a 00 ore UTC


131404Z 1315/1400 22015KT 9999 SCT015 BKN025
TEMPO 1315/1316 7000 SHRA BKN015
BECMG 1315/1317 18025G38KT
TEMPO 1316/1320 4000 +RA BKN008
BECMG 1317/1319 25015KT
TEMPO 1320/1400 28023G36KT 5000 SHRA BKN013CB
ATIS : +44 1534 498 073



MetMap, La meteo Aeronautica in un colpo d'occhio ! - Copyright ORBIFLY Dicembre 2007 - Disclaimer

ORBIFLY MET'MAP TEAM :

Programmazione e sviluppo : Alexandra Zaïnal
Concezione e sviluppo : Baudouin d'Aumeries
Co-Programmazione e sviluppo : Marc-Olivier Méhu
Supporto tecnico e logistico : Manuel Goepfert
Aiuto per la traduzione : Arnaldo La Scala

Contatto : metmap@orbifly.com




FONTI E CREDITI :

   NOAA